createdAt,value
2017-12-15T00:01:48.523Z,97383.78
2017-12-15T00:04:22.187Z,97381.69
2017-12-15T00:06:55.875Z,97380.44
2017-12-15T00:09:29.733Z,97373.64
2017-12-15T00:12:03.928Z,97362.20
2017-12-15T00:14:37.727Z,97364.19
2017-12-15T00:17:11.422Z,97370.17
2017-12-15T00:19:45.056Z,97365.44
2017-12-15T00:22:18.717Z,97374.25
2017-12-15T00:24:52.141Z,97378.81
2017-12-15T00:27:26.171Z,97380.03
2017-12-15T00:29:59.967Z,97389.33
2017-12-15T00:32:33.678Z,97391.31
2017-12-15T00:35:07.500Z,97394.26
2017-12-15T00:37:41.326Z,97392.45
2017-12-15T00:40:14.865Z,97392.45
2017-12-15T00:42:48.757Z,97398.12
2017-12-15T00:45:23.001Z,97400.22
2017-12-15T00:47:57.279Z,97392.16
2017-12-15T00:50:30.933Z,97393.23
2017-12-15T00:53:05.091Z,97394.95
2017-12-15T00:55:38.980Z,97391.20
2017-12-15T00:58:12.589Z,97390.66
2017-12-15T01:00:46.569Z,97386.02
2017-12-15T01:03:19.993Z,97390.66
2017-12-15T01:05:53.733Z,97392.01
2017-12-15T01:08:27.472Z,97402.37
2017-12-15T01:11:01.406Z,97410.08
2017-12-15T01:13:35.025Z,97412.91
2017-12-15T01:16:08.677Z,97412.91
2017-12-15T01:18:42.475Z,97418.69
2017-12-15T01:21:16.645Z,97425.27
2017-12-15T01:23:50.314Z,97423.88
2017-12-15T01:26:24.133Z,97421.00
2017-12-15T01:28:57.896Z,97423.89
2017-12-15T01:31:31.639Z,97421.03
2017-12-15T01:34:05.313Z,97425.80
2017-12-15T01:36:39.365Z,97424.09
2017-12-15T01:39:12.980Z,97430.14
2017-12-15T01:41:46.737Z,97431.16
2017-12-15T01:44:20.485Z,97436.19
2017-12-15T01:46:54.059Z,97433.20
2017-12-15T01:49:27.676Z,97430.23
2017-12-15T01:52:02.064Z,97435.73
2017-12-15T01:54:35.734Z,97440.14
2017-12-15T01:57:09.187Z,97439.39
2017-12-15T01:59:42.922Z,97443.96
2017-12-15T02:02:16.607Z,97448.80
2017-12-15T02:04:50.363Z,97454.56
2017-12-15T02:07:24.351Z,97463.59
2017-12-15T02:09:58.014Z,97464.09
2017-12-15T02:12:31.968Z,97471.42
2017-12-15T02:15:07.085Z,97466.70
2017-12-15T02:17:40.842Z,97476.81
2017-12-15T02:20:14.688Z,97483.70
2017-12-15T02:22:49.633Z,97477.05
2017-12-15T02:25:23.226Z,97496.56
2017-12-15T02:27:56.864Z,97492.30
2017-12-15T02:30:30.637Z,97507.43
2017-12-15T02:33:04.190Z,97509.42
2017-12-15T02:35:37.895Z,97512.23
2017-12-15T02:38:12.094Z,97512.38
2017-12-15T02:40:45.953Z,97509.22
2017-12-15T02:43:19.505Z,97512.52
2017-12-15T02:45:53.335Z,97514.42
2017-12-15T02:48:27.255Z,97524.59
2017-12-15T02:51:01.102Z,97521.05
2017-12-15T02:53:34.917Z,97529.69
2017-12-15T02:56:08.458Z,97529.14
2017-12-15T02:58:42.072Z,97532.84
2017-12-15T03:01:15.713Z,97532.16
2017-12-15T03:03:49.738Z,97537.92
2017-12-15T03:06:23.326Z,97540.29
2017-12-15T03:08:56.980Z,97537.72
2017-12-15T03:11:31.066Z,97544.88
2017-12-15T03:14:04.859Z,97546.11
2017-12-15T03:16:38.383Z,97546.20
2017-12-15T03:19:12.305Z,97552.38
2017-12-15T03:21:45.982Z,97546.95
2017-12-15T03:24:19.800Z,97552.70
2017-12-15T03:26:53.497Z,97557.94
2017-12-15T03:29:27.347Z,97566.70
2017-12-15T03:32:00.901Z,97571.06
2017-12-15T03:34:35.170Z,97576.42
2017-12-15T03:37:08.781Z,97573.03
2017-12-15T03:39:42.567Z,97588.12
2017-12-15T03:42:16.153Z,97595.64
2017-12-15T03:44:50.086Z,97606.92
2017-12-15T03:47:24.314Z,97613.20
2017-12-15T03:49:58.005Z,97614.26
2017-12-15T03:52:31.615Z,97619.95
2017-12-15T03:55:05.269Z,97626.56
2017-12-15T03:57:39.054Z,97623.08
2017-12-15T04:00:14.776Z,97627.37
2017-12-15T04:02:48.088Z,97623.67
2017-12-15T04:05:21.688Z,97626.90
2017-12-15T04:07:55.432Z,97634.37
2017-12-15T04:10:29.047Z,97633.89
2017-12-15T04:13:03.064Z,97630.02
2017-12-15T04:15:36.692Z,97632.42
2017-12-15T04:18:10.299Z,97638.94
2017-12-15T04:20:44.081Z,97644.77
2017-12-15T04:23:17.599Z,97646.77
2017-12-15T04:25:51.251Z,97650.16
2017-12-15T04:28:25.389Z,97656.58
2017-12-15T04:30:59.001Z,97645.66
2017-12-15T04:33:32.560Z,97649.59
2017-12-15T04:36:05.997Z,97659.72
2017-12-15T04:38:39.712Z,97659.57
2017-12-15T04:41:13.761Z,97656.85
2017-12-15T04:43:47.828Z,97666.45
2017-12-15T04:46:21.428Z,97669.70
2017-12-15T04:48:55.150Z,97669.56
2017-12-15T04:51:28.701Z,97668.69
2017-12-15T04:54:02.258Z,97674.80
2017-12-15T04:56:35.949Z,97680.91
2017-12-15T04:59:09.856Z,97680.27
2017-12-15T05:01:43.615Z,97675.03
2017-12-15T05:04:17.539Z,97672.72
2017-12-15T05:06:51.150Z,97678.68
2017-12-15T05:09:24.642Z,97679.18
2017-12-15T05:11:58.363Z,97687.95
2017-12-15T05:14:32.558Z,97702.97
2017-12-15T05:17:06.251Z,97707.92
2017-12-15T05:19:39.991Z,97712.72
2017-12-15T05:22:13.860Z,97714.59
2017-12-15T05:24:47.560Z,97720.47
2017-12-15T05:27:21.281Z,97720.94
2017-12-15T05:29:54.953Z,97727.13
2017-12-15T05:32:28.553Z,97735.29
2017-12-15T05:35:02.413Z,97728.31
2017-12-15T05:37:36.025Z,97727.08
2017-12-15T05:40:09.789Z,97731.70
2017-12-15T05:42:43.305Z,97738.02
2017-12-15T05:45:16.858Z,97738.19
2017-12-15T05:47:50.810Z,97749.06
2017-12-15T05:50:24.622Z,97750.60
2017-12-15T05:52:58.544Z,97756.83
2017-12-15T05:55:32.672Z,97764.70
2017-12-15T05:58:06.359Z,97768.52
2017-12-15T06:00:40.169Z,97769.23
2017-12-15T06:03:13.891Z,97775.45
2017-12-15T06:05:47.743Z,97780.90
2017-12-15T06:08:21.529Z,97781.91
2017-12-15T06:10:55.622Z,97785.03
2017-12-15T06:13:29.327Z,97790.24
2017-12-15T06:16:02.972Z,97799.94
2017-12-15T06:18:36.749Z,97803.59
2017-12-15T06:21:10.593Z,97816.88
2017-12-15T06:23:44.342Z,97818.29
2017-12-15T06:26:17.968Z,97830.27
2017-12-15T06:28:51.758Z,97841.61
2017-12-15T06:31:25.773Z,97850.23
2017-12-15T06:33:59.436Z,97855.34
2017-12-15T06:36:33.529Z,97855.01
2017-12-15T06:39:07.120Z,97859.34
2017-12-15T06:41:40.793Z,97863.56
2017-12-15T06:44:14.596Z,97857.52
2017-12-15T06:46:48.329Z,97860.05
2017-12-15T06:49:22.640Z,97855.03
2017-12-15T06:51:56.462Z,97859.93
2017-12-15T06:54:30.138Z,97858.71
2017-12-15T06:57:03.880Z,97868.73
2017-12-15T06:59:37.634Z,97865.75
2017-12-15T07:02:11.322Z,97869.55
2017-12-15T07:04:45.209Z,97859.93
2017-12-15T07:07:18.858Z,97859.87
2017-12-15T07:09:52.696Z,97869.40
2017-12-15T07:12:26.525Z,97870.00
2017-12-15T07:15:00.188Z,97880.47
2017-12-15T07:17:37.308Z,97882.52
2017-12-15T07:20:11.596Z,97887.02
2017-12-15T07:22:45.416Z,97892.64
2017-12-15T07:25:19.592Z,97894.36
2017-12-15T07:27:53.046Z,97898.39
2017-12-15T07:30:26.593Z,97905.42
2017-12-15T07:33:00.375Z,97907.13
2017-12-15T07:35:34.364Z,97912.63
2017-12-15T07:38:08.121Z,97911.41
2017-12-15T07:40:41.882Z,97915.03
2017-12-15T07:43:15.795Z,97919.25
2017-12-15T07:45:49.527Z,97921.09
2017-12-15T07:48:23.652Z,97910.57
2017-12-15T07:50:57.388Z,97920.56
2017-12-15T07:53:31.244Z,97920.08
2017-12-15T07:56:05.431Z,97916.73
2017-12-15T07:58:39.048Z,97913.15
2017-12-15T08:01:13.044Z,97913.48
2017-12-15T08:03:46.851Z,97919.55
2017-12-15T08:06:20.571Z,97923.52
2017-12-15T08:08:54.245Z,97922.52
2017-12-15T08:11:27.956Z,97927.58
2017-12-15T08:14:01.473Z,97926.30
2017-12-15T08:16:35.275Z,97930.88
2017-12-15T08:19:09.508Z,97933.64
2017-12-15T08:21:43.237Z,97939.95
2017-12-15T08:24:17.006Z,97931.38
2017-12-15T08:26:50.841Z,97934.00
2017-12-15T08:29:24.689Z,97934.77
2017-12-15T08:31:58.986Z,97935.41
2017-12-15T08:34:32.942Z,97926.20
2017-12-15T08:37:06.762Z,97930.95
2017-12-15T08:39:40.521Z,97930.28
2017-12-15T08:42:14.262Z,97926.48
2017-12-15T08:44:48.114Z,97930.38
2017-12-15T08:47:21.948Z,97932.41
2017-12-15T08:49:55.817Z,97932.31
2017-12-15T08:52:29.647Z,97936.41
2017-12-15T08:55:03.578Z,97941.57
2017-12-15T08:57:37.430Z,97948.42
2017-12-15T09:00:12.333Z,97945.66
2017-12-15T09:02:46.057Z,97943.43
2017-12-15T09:05:20.523Z,97944.44
2017-12-15T09:07:54.204Z,97946.47
2017-12-15T09:10:28.757Z,97945.03
2017-12-15T09:13:02.952Z,97944.98
2017-12-15T09:15:36.583Z,97946.56
2017-12-15T09:18:10.231Z,97956.05
2017-12-15T09:20:44.013Z,97950.23
2017-12-15T09:23:17.732Z,97953.14
2017-12-15T09:25:51.961Z,97963.63
2017-12-15T09:28:25.635Z,97955.05
2017-12-15T09:30:59.466Z,97962.25
2017-12-15T09:33:33.300Z,97969.06
2017-12-15T09:36:07.980Z,97969.88
2017-12-15T09:38:41.706Z,97968.75
2017-12-15T09:41:15.932Z,97976.28
2017-12-15T09:43:49.602Z,97971.33
2017-12-15T09:46:23.585Z,97965.30
2017-12-15T09:48:57.279Z,97972.09
2017-12-15T09:51:30.967Z,97964.08
2017-12-15T09:54:04.714Z,97963.12
2017-12-15T09:56:39.013Z,97962.72
2017-12-15T09:59:12.810Z,97967.70
2017-12-15T10:01:46.691Z,97964.34
2017-12-15T10:04:20.965Z,97963.39
2017-12-15T10:06:54.470Z,97954.55
2017-12-15T10:09:28.220Z,97962.98
2017-12-15T10:12:02.045Z,97952.70
2017-12-15T10:14:35.822Z,97952.57
2017-12-15T10:17:09.783Z,97955.55
2017-12-15T10:19:44.099Z,97946.75
2017-12-15T10:22:17.942Z,97947.06
2017-12-15T10:24:51.672Z,97943.81
2017-12-15T10:27:25.392Z,97944.48
2017-12-15T10:29:59.493Z,97941.67
2017-12-15T10:32:33.266Z,97941.00
2017-12-15T10:35:06.839Z,97937.23
2017-12-15T10:37:40.859Z,97932.34
2017-12-15T10:40:14.464Z,97934.91
2017-12-15T10:42:48.085Z,97935.22
2017-12-15T10:45:21.864Z,97931.38
2017-12-15T10:47:55.511Z,97927.61
2017-12-15T10:50:29.362Z,97924.64
2017-12-15T10:53:03.722Z,97929.42
2017-12-15T10:55:37.582Z,97927.39
2017-12-15T10:58:11.393Z,97918.23
2017-12-15T11:00:45.165Z,97924.38
2017-12-15T11:03:18.811Z,97925.65
2017-12-15T11:05:52.584Z,97920.83
2017-12-15T11:08:26.515Z,97922.57
2017-12-15T11:11:00.244Z,97916.67
2017-12-15T11:13:35.398Z,97918.58
2017-12-15T11:16:08.989Z,97915.58
2017-12-15T11:18:42.611Z,97910.37
2017-12-15T11:21:16.472Z,97908.48
2017-12-15T11:23:50.262Z,97912.66
2017-12-15T11:26:24.223Z,97911.33
2017-12-15T11:28:57.871Z,97916.48
2017-12-15T11:31:31.615Z,97908.20
2017-12-15T11:34:05.234Z,97905.49
2017-12-15T11:36:39.221Z,97901.84
2017-12-15T11:39:12.863Z,97909.31
2017-12-15T11:41:46.741Z,97908.71
2017-12-15T11:44:20.521Z,97902.13
2017-12-15T11:46:54.514Z,97900.24
2017-12-15T11:49:28.655Z,97892.64
2017-12-15T11:52:02.924Z,97890.38
2017-12-15T11:54:36.918Z,97896.64
2017-12-15T11:57:10.696Z,97902.36
2017-12-15T11:59:44.352Z,97894.88
2017-12-15T12:02:18.599Z,97894.46
2017-12-15T12:04:52.775Z,97892.98
2017-12-15T12:07:26.514Z,97891.25
2017-12-15T12:10:00.102Z,97894.34
2017-12-15T12:12:33.900Z,97891.83
2017-12-15T12:15:07.730Z,97892.08
2017-12-15T12:17:41.909Z,97896.02
2017-12-15T12:20:15.525Z,97900.05
2017-12-15T12:22:49.399Z,97892.98
2017-12-15T12:25:23.247Z,97895.06
2017-12-15T12:27:57.084Z,97890.52
2017-12-15T12:30:31.126Z,97886.03
2017-12-15T12:33:04.947Z,97892.34
2017-12-15T12:35:38.702Z,97894.53
2017-12-15T12:38:12.353Z,97891.62
2017-12-15T12:40:46.416Z,97890.61
2017-12-15T12:43:20.090Z,97888.25
2017-12-15T12:45:53.874Z,97892.23
2017-12-15T12:48:27.609Z,97892.14
2017-12-15T12:51:01.633Z,97898.59
2017-12-15T12:53:35.433Z,97897.52
2017-12-15T12:56:09.896Z,97900.91
2017-12-15T12:58:44.052Z,97902.66
2017-12-15T13:01:17.681Z,97897.18
2017-12-15T13:03:51.435Z,97904.13
2017-12-15T13:06:26.070Z,97901.45
2017-12-15T13:08:59.842Z,97906.18
2017-12-15T13:11:33.664Z,97903.33
2017-12-15T13:14:08.435Z,97904.17
2017-12-15T13:16:42.196Z,97909.52
2017-12-15T13:19:16.065Z,97901.56
2017-12-15T13:21:49.885Z,97900.96
2017-12-15T13:24:23.630Z,97901.81
2017-12-15T13:26:57.951Z,97903.33
2017-12-15T13:29:31.574Z,97906.25
2017-12-15T13:32:05.228Z,97905.59
2017-12-15T13:34:39.005Z,97909.58
2017-12-15T13:37:12.848Z,97913.27
2017-12-15T13:39:46.290Z,97918.16
2017-12-15T13:42:20.015Z,97914.98
2017-12-15T13:44:52.004Z,97917.64
2017-12-15T13:47:25.841Z,97925.58
2017-12-15T13:49:59.799Z,97920.08
2017-12-15T13:52:33.700Z,97923.24
2017-12-15T13:55:07.389Z,97929.16
2017-12-15T13:57:41.527Z,97932.52
2017-12-15T14:00:17.072Z,97929.00
2017-12-15T14:02:51.162Z,97939.58
2017-12-15T14:05:25.199Z,97929.45
2017-12-15T14:07:59.074Z,97932.98
2017-12-15T14:10:33.182Z,97940.84
2017-12-15T14:13:07.028Z,97939.88
2017-12-15T14:15:40.733Z,97946.55
2017-12-15T14:18:14.648Z,97947.50
2017-12-15T14:20:48.382Z,97947.77
2017-12-15T14:23:23.122Z,97961.88
2017-12-15T14:25:56.744Z,97967.53
2017-12-15T14:28:30.391Z,97976.92
2017-12-15T14:31:04.047Z,97971.13
2017-12-15T14:33:38.099Z,97980.34
2017-12-15T14:36:11.850Z,97984.98
2017-12-15T14:38:46.580Z,97993.05
2017-12-15T14:41:20.139Z,97996.83
2017-12-15T14:43:53.807Z,97992.38
2017-12-15T14:46:27.524Z,98000.11
2017-12-15T14:49:01.316Z,97996.32
2017-12-15T14:51:35.059Z,98006.76
2017-12-15T14:54:08.624Z,98007.43
2017-12-15T14:56:42.298Z,98017.75
2017-12-15T14:59:16.089Z,98020.89
2017-12-15T15:01:50.044Z,98027.56
2017-12-15T15:04:23.737Z,98024.83
2017-12-15T15:06:58.129Z,98028.31
2017-12-15T15:09:32.019Z,98036.17
2017-12-15T15:12:06.156Z,98036.12
2017-12-15T15:14:40.020Z,98037.66
2017-12-15T15:17:14.280Z,98032.03
2017-12-15T15:19:48.473Z,98048.50
2017-12-15T15:22:22.438Z,98042.37
2017-12-15T15:24:55.965Z,98054.64
2017-12-15T15:27:29.627Z,98062.88
2017-12-15T15:30:04.513Z,98064.96
2017-12-15T15:32:38.561Z,98060.25
2017-12-15T15:35:12.433Z,98058.54
2017-12-15T15:37:45.972Z,98065.41
2017-12-15T15:40:20.094Z,98069.23
2017-12-15T15:42:53.650Z,98065.00
2017-12-15T15:45:27.182Z,98069.14
2017-12-15T15:48:00.704Z,98066.88
2017-12-15T15:50:34.476Z,98065.45
2017-12-15T15:53:08.124Z,98073.62
2017-12-15T15:55:41.953Z,98062.17
2017-12-15T15:58:16.096Z,98065.75
2017-12-15T16:00:49.965Z,98078.41
2017-12-15T16:03:23.730Z,98078.47
2017-12-15T16:05:57.558Z,98081.72
2017-12-15T16:08:31.424Z,98080.89
2017-12-15T16:11:04.962Z,98086.14
2017-12-15T16:13:38.885Z,98083.02
2017-12-15T16:16:12.533Z,98091.69
2017-12-15T16:18:46.373Z,98092.41
2017-12-15T16:21:20.158Z,98098.50
2017-12-15T16:23:54.200Z,98101.03
2017-12-15T16:26:28.214Z,98105.67
2017-12-15T16:29:02.272Z,98104.06
2017-12-15T16:31:36.002Z,98105.72
2017-12-15T16:34:10.227Z,98106.44
2017-12-15T16:36:44.121Z,98106.84
2017-12-15T16:39:17.517Z,98112.58
2017-12-15T16:41:51.163Z,98116.98
2017-12-15T16:44:25.386Z,98125.15
2017-12-15T16:46:59.831Z,98132.20
2017-12-15T16:49:33.742Z,98137.14
2017-12-15T16:52:07.517Z,98143.00
2017-12-15T16:54:41.260Z,98142.09
2017-12-15T16:57:15.110Z,98146.77
2017-12-15T16:59:48.939Z,98145.81
2017-12-15T17:02:22.702Z,98150.09
2017-12-15T17:04:56.511Z,98155.09
2017-12-15T17:07:30.232Z,98154.73
2017-12-15T17:10:04.145Z,98146.82
2017-12-15T17:12:37.893Z,98145.05
2017-12-15T17:15:13.926Z,98148.18
2017-12-15T17:17:47.546Z,98149.28
2017-12-15T17:20:21.292Z,98153.31
2017-12-15T17:22:55.087Z,98159.58
2017-12-15T17:25:29.236Z,98161.20
2017-12-15T17:28:02.727Z,98165.67
2017-12-15T17:30:36.566Z,98166.66
2017-12-15T17:33:10.252Z,98164.91
2017-12-15T17:35:43.927Z,98156.95
2017-12-15T17:38:17.828Z,98156.35
2017-12-15T17:40:51.917Z,98156.37
2017-12-15T17:43:25.704Z,98161.95
2017-12-15T17:45:59.878Z,98158.27
2017-12-15T17:48:34.390Z,98166.58
2017-12-15T17:51:08.172Z,98160.17
2017-12-15T17:53:42.347Z,98165.67
2017-12-15T17:56:16.186Z,98170.39
2017-12-15T17:58:50.099Z,98177.94
2017-12-15T18:01:23.832Z,98182.97
2017-12-15T18:03:57.661Z,98183.79
2017-12-15T18:06:31.260Z,98188.28
2017-12-15T18:09:05.642Z,98178.52
2017-12-15T18:11:39.436Z,98182.66
2017-12-15T18:14:13.230Z,98189.83
2017-12-15T18:16:47.128Z,98193.13
2017-12-15T18:19:21.258Z,98194.22
2017-12-15T18:21:55.294Z,98199.34
2017-12-15T18:24:29.046Z,98203.13
2017-12-15T18:27:02.933Z,98202.98
2017-12-15T18:29:36.684Z,98203.39
2017-12-15T18:32:10.695Z,98217.55
2017-12-15T18:34:44.494Z,98223.86
2017-12-15T18:37:18.312Z,98217.15
2017-12-15T18:39:52.197Z,98215.38
2017-12-15T18:42:25.954Z,98214.83
2017-12-15T18:45:00.101Z,98214.42
2017-12-15T18:47:37.260Z,98216.60
2017-12-15T18:50:11.071Z,98218.20
2017-12-15T18:52:44.693Z,98224.59
2017-12-15T18:55:18.300Z,98228.41
2017-12-15T18:57:52.065Z,98229.36
2017-12-15T19:00:26.334Z,98230.73
2017-12-15T19:03:00.202Z,98222.41
2017-12-15T19:05:33.710Z,98229.63
2017-12-15T19:08:07.265Z,98230.31
2017-12-15T19:10:41.102Z,98234.55
2017-12-15T19:13:15.197Z,98240.89
2017-12-15T19:15:49.168Z,98243.31
2017-12-15T19:18:22.977Z,98240.72
2017-12-15T19:20:56.464Z,98247.03
2017-12-15T19:23:31.079Z,98242.44
2017-12-15T19:26:04.897Z,98245.48
2017-12-15T19:28:38.712Z,98248.02
2017-12-15T19:31:13.036Z,98254.16
2017-12-15T19:33:47.134Z,98257.83
2017-12-15T19:36:20.935Z,98254.46
2017-12-15T19:38:54.849Z,98256.06
2017-12-15T19:41:28.795Z,98256.09
2017-12-15T19:44:02.689Z,98267.93
2017-12-15T19:46:36.782Z,98259.12
2017-12-15T19:49:10.648Z,98264.06
2017-12-15T19:51:44.453Z,98265.44
2017-12-15T19:54:18.331Z,98268.84
2017-12-15T19:56:53.419Z,98272.95
2017-12-15T19:59:27.048Z,98274.19
2017-12-15T20:02:00.835Z,98284.53
2017-12-15T20:04:34.999Z,98290.83
2017-12-15T20:07:09.091Z,98287.42
2017-12-15T20:09:43.492Z,98290.16
2017-12-15T20:12:17.705Z,98288.28
2017-12-15T20:14:51.444Z,98288.02
2017-12-15T20:17:25.253Z,98297.95
2017-12-15T20:19:58.942Z,98292.13
2017-12-15T20:22:32.951Z,98298.70
2017-12-15T20:25:07.274Z,98294.89
2017-12-15T20:27:41.009Z,98300.78
2017-12-15T20:30:16.331Z,98304.05
2017-12-15T20:32:50.958Z,98306.73
2017-12-15T20:35:24.709Z,98308.13
2017-12-15T20:37:58.637Z,98311.67
2017-12-15T20:40:32.354Z,98312.89
2017-12-15T20:43:06.193Z,98315.25
2017-12-15T20:45:40.677Z,98318.55
2017-12-15T20:48:14.427Z,98316.30
2017-12-15T20:50:48.275Z,98313.62
2017-12-15T20:53:22.995Z,98312.53
2017-12-15T20:55:56.916Z,98313.66
2017-12-15T20:58:31.295Z,98310.89
2017-12-15T21:01:05.004Z,98308.95
2017-12-15T21:03:38.619Z,98319.63
2017-12-15T21:06:12.911Z,98318.95
2017-12-15T21:08:47.241Z,98324.59
2017-12-15T21:11:20.965Z,98319.83
2017-12-15T21:13:54.593Z,98325.88
2017-12-15T21:16:28.387Z,98331.56
2017-12-15T21:19:02.147Z,98330.16
2017-12-15T21:21:36.037Z,98332.16
2017-12-15T21:24:09.677Z,98337.98
2017-12-15T21:26:43.516Z,98333.48
2017-12-15T21:29:17.307Z,98335.48
2017-12-15T21:31:51.278Z,98331.36
2017-12-15T21:34:24.987Z,98329.56
2017-12-15T21:36:59.050Z,98329.20
2017-12-15T21:39:33.098Z,98331.79
2017-12-15T21:42:06.832Z,98336.42
2017-12-15T21:44:40.616Z,98340.02
2017-12-15T21:47:14.834Z,98353.98
2017-12-15T21:49:48.574Z,98344.52
2017-12-15T21:52:22.198Z,98348.46
2017-12-15T21:54:56.870Z,98347.19
2017-12-15T21:57:30.738Z,98355.20
2017-12-15T22:00:06.094Z,98358.77
2017-12-15T22:02:39.803Z,98368.72
2017-12-15T22:05:14.290Z,98372.59
2017-12-15T22:07:48.168Z,98379.41
2017-12-15T22:10:21.894Z,98390.29
2017-12-15T22:12:55.558Z,98393.70
2017-12-15T22:15:29.606Z,98398.42
2017-12-15T22:18:03.416Z,98406.20
2017-12-15T22:20:37.156Z,98404.83
2017-12-15T22:23:10.989Z,98407.01
2017-12-15T22:25:44.802Z,98416.55
2017-12-15T22:28:18.630Z,98412.59
2017-12-15T22:30:52.741Z,98410.82
2017-12-15T22:33:26.364Z,98414.02
2017-12-15T22:36:00.165Z,98416.47
2017-12-15T22:38:33.841Z,98424.38
2017-12-15T22:41:07.956Z,98427.36
2017-12-15T22:43:41.601Z,98425.28
2017-12-15T22:46:16.058Z,98426.44
2017-12-15T22:48:49.902Z,98436.78
2017-12-15T22:51:23.598Z,98432.61
2017-12-15T22:53:58.244Z,98429.82
2017-12-15T22:56:32.182Z,98436.15
2017-12-15T22:59:05.867Z,98440.47
2017-12-15T23:01:39.513Z,98442.55
2017-12-15T23:04:13.280Z,98439.61
2017-12-15T23:06:47.325Z,98441.70
2017-12-15T23:09:21.097Z,98437.23
2017-12-15T23:11:53.665Z,98429.69
2017-12-15T23:14:27.331Z,98435.31
2017-12-15T23:17:01.096Z,98436.93
2017-12-15T23:19:35.419Z,98437.14
2017-12-15T23:22:09.176Z,98446.30
2017-12-15T23:24:42.924Z,98443.00
2017-12-15T23:27:16.762Z,98445.39
2017-12-15T23:29:50.563Z,98449.47
2017-12-15T23:32:24.967Z,98454.27
2017-12-15T23:34:58.516Z,98457.43
2017-12-15T23:37:32.176Z,98452.97
2017-12-15T23:40:06.502Z,98458.03
2017-12-15T23:42:40.800Z,98464.73
2017-12-15T23:45:16.452Z,98461.39
2017-12-15T23:47:50.295Z,98463.38
2017-12-15T23:50:23.980Z,98458.95
2017-12-15T23:52:58.147Z,98467.49
2017-12-15T23:57:38.770Z,98463.73
